sensor_id;sensor_type;location;lat;lon;timestamp;pressure;altitude;pressure_sealevel;temperature;humidity
73284;BME280;61519;60.050;18.582;2023-10-09T00:01:04;101419.84;;;2.22;54.96
73284;BME280;61519;60.050;18.582;2023-10-09T00:03:38;101403.03;;;2.15;54.72
73284;BME280;61519;60.050;18.582;2023-10-09T00:06:05;101413.72;;;2.23;54.88
73284;BME280;61519;60.050;18.582;2023-10-09T00:08:30;101426.09;;;2.32;54.43
73284;BME280;61519;60.050;18.582;2023-10-09T00:11:00;101412.91;;;2.23;55.10
73284;BME280;61519;60.050;18.582;2023-10-09T00:13:46;101397.09;;;2.13;54.84
73284;BME280;61519;60.050;18.582;2023-10-09T00:16:16;101422.75;;;2.30;55.10
73284;BME280;61519;60.050;18.582;2023-10-09T00:18:41;101387.13;;;2.07;55.10
73284;BME280;61519;60.050;18.582;2023-10-09T00:21:18;101397.81;;;2.15;54.89
73284;BME280;61519;60.050;18.582;2023-10-09T00:23:46;101415.19;;;2.27;54.89
73284;BME280;61519;60.050;18.582;2023-10-09T00:26:19;101416.94;;;2.27;55.04
73284;BME280;61519;60.050;18.582;2023-10-09T00:28:48;101407.19;;;2.18;55.06
73284;BME280;61519;60.050;18.582;2023-10-09T00:31:18;101415.38;;;2.24;55.24
73284;BME280;61519;60.050;18.582;2023-10-09T00:33:59;101390.44;;;2.09;55.05
73284;BME280;61519;60.050;18.582;2023-10-09T00:36:30;101394.72;;;2.10;54.88
73284;BME280;61519;60.050;18.582;2023-10-09T00:38:58;101417.25;;;2.22;55.31
73284;BME280;61519;60.050;18.582;2023-10-09T00:41:26;101386.09;;;2.10;55.06
73284;BME280;61519;60.050;18.582;2023-10-09T00:43:54;101390.97;;;2.14;55.38
73284;BME280;61519;60.050;18.582;2023-10-09T00:46:24;101394.78;;;2.21;55.26
73284;BME280;61519;60.050;18.582;2023-10-09T00:48:53;101387.00;;;2.21;55.48
73284;BME280;61519;60.050;18.582;2023-10-09T00:51:19;101354.59;;;1.89;55.42
73284;BME280;61519;60.050;18.582;2023-10-09T00:53:53;101388.13;;;2.17;55.17
73284;BME280;61519;60.050;18.582;2023-10-09T00:56:22;101391.34;;;2.21;55.46
73284;BME280;61519;60.050;18.582;2023-10-09T00:58:55;101386.69;;;2.13;55.17
73284;BME280;61519;60.050;18.582;2023-10-09T01:01:22;101391.34;;;2.21;55.31
73284;BME280;61519;60.050;18.582;2023-10-09T01:03:52;101377.72;;;2.17;55.44
73284;BME280;61519;60.050;18.582;2023-10-09T01:06:18;101352.81;;;2.02;55.67
73284;BME280;61519;60.050;18.582;2023-10-09T01:08:46;101357.78;;;2.05;55.54
73284;BME280;61519;60.050;18.582;2023-10-09T01:11:48;101381.16;;;2.18;55.43
73284;BME280;61519;60.050;18.582;2023-10-09T01:14:31;101382.09;;;2.17;55.68
73284;BME280;61519;60.050;18.582;2023-10-09T01:17:02;101359.47;;;2.06;55.44
73284;BME280;61519;60.050;18.582;2023-10-09T01:19:32;101376.78;;;2.18;55.83
73284;BME280;61519;60.050;18.582;2023-10-09T01:21:58;101379.38;;;2.18;55.73
73284;BME280;61519;60.050;18.582;2023-10-09T01:24:30;101343.19;;;2.03;55.83
73284;BME280;61519;60.050;18.582;2023-10-09T01:27:00;101355.69;;;2.10;55.65
73284;BME280;61519;60.050;18.582;2023-10-09T01:29:30;101356.44;;;2.12;55.38
73284;BME280;61519;60.050;18.582;2023-10-09T01:31:56;101327.41;;;1.93;55.54
73284;BME280;61519;60.050;18.582;2023-10-09T01:34:30;101362.34;;;2.14;55.44
73284;BME280;61519;60.050;18.582;2023-10-09T01:37:25;101353.81;;;2.12;55.84
73284;BME280;61519;60.050;18.582;2023-10-09T01:39:55;101336.78;;;1.96;55.56
73284;BME280;61519;60.050;18.582;2023-10-09T01:42:25;101335.41;;;2.03;55.60
73284;BME280;61519;60.050;18.582;2023-10-09T01:45:00;101357.22;;;2.13;55.87
73284;BME280;61519;60.050;18.582;2023-10-09T01:47:41;101354.75;;;2.11;55.74
73284;BME280;61519;60.050;18.582;2023-10-09T01:50:11;101360.06;;;2.10;55.71
73284;BME280;61519;60.050;18.582;2023-10-09T01:52:45;101352.38;;;2.08;55.94
73284;BME280;61519;60.050;18.582;2023-10-09T01:55:11;101349.06;;;2.06;55.82
73284;BME280;61519;60.050;18.582;2023-10-09T01:57:53;101326.38;;;1.96;55.78
73284;BME280;61519;60.050;18.582;2023-10-09T02:00:18;101331.47;;;1.97;56.01
73284;BME280;61519;60.050;18.582;2023-10-09T02:02:48;101325.78;;;1.92;55.85
73284;BME280;61519;60.050;18.582;2023-10-09T02:05:16;101328.25;;;1.94;55.77
73284;BME280;61519;60.050;18.582;2023-10-09T02:07:42;101304.97;;;1.79;56.04
73284;BME280;61519;60.050;18.582;2023-10-09T02:10:17;101322.44;;;1.90;55.99
73284;BME280;61519;60.050;18.582;2023-10-09T02:12:53;101301.66;;;1.77;56.11
73284;BME280;61519;60.050;18.582;2023-10-09T02:15:29;101322.44;;;1.90;56.29
73284;BME280;61519;60.050;18.582;2023-10-09T02:18:11;101317.25;;;1.90;55.91
73284;BME280;61519;60.050;18.582;2023-10-09T02:20:50;101288.47;;;1.68;56.34
73284;BME280;61519;60.050;18.582;2023-10-09T02:23:36;101308.09;;;1.85;56.34
73284;BME280;61519;60.050;18.582;2023-10-09T02:26:12;101269.06;;;1.61;56.41
73284;BME280;61519;60.050;18.582;2023-10-09T02:28:55;101265.72;;;1.59;56.26
73284;BME280;61519;60.050;18.582;2023-10-09T02:31:27;101304.97;;;1.79;56.30
73284;BME280;61519;60.050;18.582;2023-10-09T02:34:08;101295.25;;;1.70;56.11
73284;BME280;61519;60.050;18.582;2023-10-09T02:36:34;101309.16;;;1.82;56.33
73284;BME280;61519;60.050;18.582;2023-10-09T02:39:03;101311.03;;;1.80;56.32
73284;BME280;61519;60.050;18.582;2023-10-09T02:41:32;101308.19;;;1.83;56.54
73284;BME280;61519;60.050;18.582;2023-10-09T02:43:59;101278.19;;;1.66;56.72
73284;BME280;61519;60.050;18.582;2023-10-09T02:46:35;101282.13;;;1.72;56.42
73284;BME280;61519;60.050;18.582;2023-10-09T02:49:01;101237.38;;;1.43;56.48
73284;BME280;61519;60.050;18.582;2023-10-09T02:51:34;101296.16;;;1.82;56.21
73284;BME280;61519;60.050;18.582;2023-10-09T02:54:06;101293.75;;;1.79;56.42
73284;BME280;61519;60.050;18.582;2023-10-09T02:56:53;101275.03;;;1.74;56.30
73284;BME280;61519;60.050;18.582;2023-10-09T02:59:31;101285.03;;;1.80;56.69
73284;BME280;61519;60.050;18.582;2023-10-09T03:01:56;101266.94;;;1.66;56.58
73284;BME280;61519;60.050;18.582;2023-10-09T03:04:28;101274.44;;;1.70;56.77
73284;BME280;61519;60.050;18.582;2023-10-09T03:07:00;101276.69;;;1.75;56.52
73284;BME280;61519;60.050;18.582;2023-10-09T03:09:26;101277.66;;;1.74;56.82
73284;BME280;61519;60.050;18.582;2023-10-09T03:11:56;101282.84;;;1.74;56.51
73284;BME280;61519;60.050;18.582;2023-10-09T03:14:30;101273.59;;;1.70;56.80
73284;BME280;61519;60.050;18.582;2023-10-09T03:16:57;101269.44;;;1.67;56.97
73284;BME280;61519;60.050;18.582;2023-10-09T03:19:25;101268.50;;;1.68;56.76
73284;BME280;61519;60.050;18.582;2023-10-09T03:21:51;101277.66;;;1.74;56.98
73284;BME280;61519;60.050;18.582;2023-10-09T03:24:16;101266.13;;;1.65;57.16
73284;BME280;61519;60.050;18.582;2023-10-09T03:26:43;101278.56;;;1.73;56.85
73284;BME280;61519;60.050;18.582;2023-10-09T03:29:11;101283.56;;;1.76;56.90
73284;BME280;61519;60.050;18.582;2023-10-09T03:31:37;101256.56;;;1.66;56.69
73284;BME280;61519;60.050;18.582;2023-10-09T03:34:03;101272.94;;;1.79;56.71
73284;BME280;61519;60.050;18.582;2023-10-09T03:36:29;101249.72;;;1.65;57.13
73284;BME280;61519;60.050;18.582;2023-10-09T03:38:57;101268.56;;;1.79;56.94
73284;BME280;61519;60.050;18.582;2023-10-09T03:41:26;101258.59;;;1.73;57.29
73284;BME280;61519;60.050;18.582;2023-10-09T03:43:52;101249.97;;;1.73;57.32
73284;BME280;61519;60.050;18.582;2023-10-09T03:46:19;101227.97;;;1.66;56.87
73284;BME280;61519;60.050;18.582;2023-10-09T03:48:50;101263.97;;;1.83;57.26
73284;BME280;61519;60.050;18.582;2023-10-09T03:51:17;101245.97;;;1.69;56.89
73284;BME280;61519;60.050;18.582;2023-10-09T03:53:49;101263.78;;;1.86;57.16
73284;BME280;61519;60.050;18.582;2023-10-09T03:56:16;101259.50;;;1.85;57.26
73284;BME280;61519;60.050;18.582;2023-10-09T03:58:44;101251.41;;;1.77;57.31
73284;BME280;61519;60.050;18.582;2023-10-09T04:01:14;101268.25;;;1.84;57.17
73284;BME280;61519;60.050;18.582;2023-10-09T04:03:48;101264.22;;;1.80;57.37
73284;BME280;61519;60.050;18.582;2023-10-09T04:06:13;101260.66;;;1.81;57.12
73284;BME280;61519;60.050;18.582;2023-10-09T04:08:40;101232.22;;;1.67;57.29
73284;BME280;61519;60.050;18.582;2023-10-09T04:11:12;101267.53;;;1.82;57.09
73284;BME280;61519;60.050;18.582;2023-10-09T04:13:45;101239.06;;;1.68;57.31
73284;BME280;61519;60.050;18.582;2023-10-09T04:16:15;101263.25;;;1.81;57.32
73284;BME280;61519;60.050;18.582;2023-10-09T04:18:52;101246.22;;;1.77;57.27
73284;BME280;61519;60.050;18.582;2023-10-09T04:21:18;101239.81;;;1.70;57.09
73284;BME280;61519;60.050;18.582;2023-10-09T04:23:59;101253.38;;;1.86;57.20
73284;BME280;61519;60.050;18.582;2023-10-09T04:26:25;101243.19;;;1.83;57.53
73284;BME280;61519;60.050;18.582;2023-10-09T04:28:51;101265.44;;;1.87;57.26
73284;BME280;61519;60.050;18.582;2023-10-09T04:31:19;101234.28;;;1.74;57.36
73284;BME280;61519;60.050;18.582;2023-10-09T04:33:45;101255.88;;;1.88;57.36
73284;BME280;61519;60.050;18.582;2023-10-09T04:36:19;101244.75;;;1.86;57.66
73284;BME280;61519;60.050;18.582;2023-10-09T04:38:45;101230.53;;;1.78;57.58
73284;BME280;61519;60.050;18.582;2023-10-09T04:41:31;101224.69;;;1.75;57.49
73284;BME280;61519;60.050;18.582;2023-10-09T04:44:19;101244.84;;;1.84;57.53
73284;BME280;61519;60.050;18.582;2023-10-09T04:46:49;101239.97;;;1.79;57.61
73284;BME280;61519;60.050;18.582;2023-10-09T04:49:35;101244.25;;;1.81;57.56
73284;BME280;61519;60.050;18.582;2023-10-09T04:52:20;101222.75;;;1.66;57.71
73284;BME280;61519;60.050;18.582;2023-10-09T04:54:55;101239.25;;;1.77;57.52
73284;BME280;61519;60.050;18.582;2023-10-09T04:57:43;101234.28;;;1.74;57.73
73284;BME280;61519;60.050;18.582;2023-10-09T05:02:50;101229.88;;;1.75;57.50
73284;BME280;61519;60.050;18.582;2023-10-09T05:05:28;101243.41;;;1.80;57.53
73284;BME280;61519;60.050;18.582;2023-10-09T05:08:06;101231.34;;;1.79;57.87
73284;BME280;61519;60.050;18.582;2023-10-09T05:10:45;101234.78;;;1.79;57.63
73284;BME280;61519;60.050;18.582;2023-10-09T05:13:34;101235.28;;;1.85;57.93
73284;BME280;61519;60.050;18.582;2023-10-09T05:16:07;101221.16;;;1.76;57.88
73284;BME280;61519;60.050;18.582;2023-10-09T05:18:47;101237.34;;;1.92;57.69
73284;BME280;61519;60.050;18.582;2023-10-09T05:21:32;101235.22;;;1.97;57.73
73284;BME280;61519;60.050;18.582;2023-10-09T05:23:59;101206.13;;;1.92;57.94
73284;BME280;61519;60.050;18.582;2023-10-09T05:26:41;101230.56;;;2.13;58.29
73284;BME280;61519;60.050;18.582;2023-10-09T05:29:23;101230.72;;;2.23;57.72
73284;BME280;61519;60.050;18.582;2023-10-09T05:32:04;101229.00;;;2.34;57.74
73284;BME280;61519;60.050;18.582;2023-10-09T05:34:39;101231.88;;;2.42;57.16
73284;BME280;61519;60.050;18.582;2023-10-09T05:37:25;101230.25;;;2.52;57.35
73284;BME280;61519;60.050;18.582;2023-10-09T05:39:54;101211.19;;;2.52;57.27
73284;BME280;61519;60.050;18.582;2023-10-09T05:42:30;101236.22;;;2.77;57.30
73284;BME280;61519;60.050;18.582;2023-10-09T05:45:09;101223.81;;;2.91;56.90
73284;BME280;61519;60.050;18.582;2023-10-09T05:47:45;101225.59;;;3.02;56.83
73284;BME280;61519;60.050;18.582;2023-10-09T05:50:24;101228.81;;;3.16;56.64
73284;BME280;61519;60.050;18.582;2023-10-09T05:52:50;101236.84;;;3.24;56.82
73284;BME280;61519;60.050;18.582;2023-10-09T05:55:25;101232.84;;;3.31;56.83
73284;BME280;61519;60.050;18.582;2023-10-09T05:57:55;101231.31;;;3.40;56.79
73284;BME280;61519;60.050;18.582;2023-10-09T06:00:27;101229.16;;;3.45;56.88
73284;BME280;61519;60.050;18.582;2023-10-09T06:03:11;101231.84;;;3.66;56.90
73284;BME280;61519;60.050;18.582;2023-10-09T06:05:53;101235.75;;;3.82;56.44
73284;BME280;61519;60.050;18.582;2023-10-09T06:08:19;101206.81;;;3.85;56.13
73284;BME280;61519;60.050;18.582;2023-10-09T06:11:04;101209.19;;;4.09;55.90
73284;BME280;61519;60.050;18.582;2023-10-09T06:13:56;101204.44;;;4.34;56.07
73284;BME280;61519;60.050;18.582;2023-10-09T06:16:28;101223.66;;;4.65;55.66
73284;BME280;61519;60.050;18.582;2023-10-09T06:19:13;101211.97;;;4.90;55.35
73284;BME280;61519;60.050;18.582;2023-10-09T06:21:44;101213.03;;;5.08;55.46
73284;BME280;61519;60.050;18.582;2023-10-09T06:24:42;101204.72;;;5.33;54.83
73284;BME280;61519;60.050;18.582;2023-10-09T06:27:08;101206.44;;;5.53;54.65
73284;BME280;61519;60.050;18.582;2023-10-09T06:29:37;101228.25;;;5.73;54.63
73284;BME280;61519;60.050;18.582;2023-10-09T06:32:09;101213.09;;;5.76;54.60
73284;BME280;61519;60.050;18.582;2023-10-09T06:37:18;101229.44;;;6.08;54.39
73284;BME280;61519;60.050;18.582;2023-10-09T06:39:50;101224.22;;;6.08;54.55
73284;BME280;61519;60.050;18.582;2023-10-09T06:42:18;101230.28;;;6.09;54.27
73284;BME280;61519;60.050;18.582;2023-10-09T06:45:09;101236.91;;;6.13;54.29
73284;BME280;61519;60.050;18.582;2023-10-09T06:47:46;101222.69;;;6.15;54.17
73284;BME280;61519;60.050;18.582;2023-10-09T06:50:22;101220.84;;;6.83;53.56
73284;BME280;61519;60.050;18.582;2023-10-09T06:52:48;101215.94;;;8.06;52.41
73284;BME280;61519;60.050;18.582;2023-10-09T06:55:24;101201.16;;;9.43;51.16
73284;BME280;61519;60.050;18.582;2023-10-09T06:58:01;101216.69;;;10.68;49.97
73284;BME280;61519;60.050;18.582;2023-10-09T07:00:28;101192.25;;;11.37;49.34
73284;BME280;61519;60.050;18.582;2023-10-09T07:03:11;101188.22;;;13.22;48.04
73284;BME280;61519;60.050;18.582;2023-10-09T07:05:38;101192.56;;;16.53;44.54
73284;BME280;61519;60.050;18.582;2023-10-09T07:08:23;101192.50;;;19.78;41.44
73284;BME280;61519;60.050;18.582;2023-10-09T07:11:00;101182.59;;;19.49;40.56
73284;BME280;61519;60.050;18.582;2023-10-09T07:13:45;101204.00;;;19.49;40.33
73284;BME280;61519;60.050;18.582;2023-10-09T07:16:20;101174.53;;;20.96;38.13
73284;BME280;61519;60.050;18.582;2023-10-09T07:18:49;101197.28;;;23.29;35.70
73284;BME280;61519;60.050;18.582;2023-10-09T07:21:14;101202.84;;;25.86;33.26
73284;BME280;61519;60.050;18.582;2023-10-09T07:23:43;101207.19;;;28.30;30.47
73284;BME280;61519;60.050;18.582;2023-10-09T07:26:14;101208.63;;;30.63;28.46
73284;BME280;61519;60.050;18.582;2023-10-09T07:28:44;101209.44;;;32.57;26.25
73284;BME280;61519;60.050;18.582;2023-10-09T07:31:20;101203.75;;;34.39;24.63
73284;BME280;61519;60.050;18.582;2023-10-09T07:33:53;101204.63;;;36.15;22.97
73284;BME280;61519;60.050;18.582;2023-10-09T07:36:31;101212.41;;;37.75;22.25
73284;BME280;61519;60.050;18.582;2023-10-09T07:39:01;101210.97;;;39.23;20.15
73284;BME280;61519;60.050;18.582;2023-10-09T07:41:30;101209.88;;;40.58;19.22
73284;BME280;61519;60.050;18.582;2023-10-09T07:43:58;101227.44;;;42.26;17.77
73284;BME280;61519;60.050;18.582;2023-10-09T07:46:44;101219.25;;;43.96;16.16
73284;BME280;61519;60.050;18.582;2023-10-09T07:49:38;101224.16;;;45.61;15.30
73284;BME280;61519;60.050;18.582;2023-10-09T07:52:03;101228.13;;;47.01;14.07
73284;BME280;61519;60.050;18.582;2023-10-09T07:54:30;101219.41;;;48.30;13.24
73284;BME280;61519;60.050;18.582;2023-10-09T07:56:59;101230.41;;;49.76;12.57
73284;BME280;61519;60.050;18.582;2023-10-09T07:59:34;101205.84;;;50.84;11.52
73284;BME280;61519;60.050;18.582;2023-10-09T08:02:06;101229.88;;;52.00;10.63
73284;BME280;61519;60.050;18.582;2023-10-09T08:04:39;101227.91;;;52.97;10.26
73284;BME280;61519;60.050;18.582;2023-10-09T08:07:05;101216.03;;;53.80;9.66
73284;BME280;61519;60.050;18.582;2023-10-09T08:09:35;101222.94;;;54.67;9.17
73284;BME280;61519;60.050;18.582;2023-10-09T08:12:14;101225.47;;;55.47;8.93
73284;BME280;61519;60.050;18.582;2023-10-09T08:14:58;101232.34;;;56.15;8.40
73284;BME280;61519;60.050;18.582;2023-10-09T08:17:53;101230.56;;;56.83;7.96
73284;BME280;61519;60.050;18.582;2023-10-09T08:20:23;101213.81;;;57.23;7.34
73284;BME280;61519;60.050;18.582;2023-10-09T08:22:52;101233.25;;;57.54;7.09
73284;BME280;61519;60.050;18.582;2023-10-09T08:25:24;101205.59;;;57.54;6.78
73284;BME280;61519;60.050;18.582;2023-10-09T08:28:02;101217.16;;;57.80;6.69
73284;BME280;61519;60.050;18.582;2023-10-09T08:30:39;101225.84;;;58.05;6.39
73284;BME280;61519;60.050;18.582;2023-10-09T08:33:27;101235.41;;;58.23;6.34
73284;BME280;61519;60.050;18.582;2023-10-09T08:35:54;101201.50;;;57.99;6.06
73284;BME280;61519;60.050;18.582;2023-10-09T08:38:33;101198.22;;;57.04;6.12
73284;BME280;61519;60.050;18.582;2023-10-09T08:41:12;101215.78;;;53.44;6.91
73284;BME280;61519;60.050;18.582;2023-10-09T08:46:19;101194.81;;;45.03;9.15
73284;BME280;61519;60.050;18.582;2023-10-09T08:48:45;101188.59;;;41.59;10.60
73284;BME280;61519;60.050;18.582;2023-10-09T08:51:11;101152.00;;;38.37;11.27
73284;BME280;61519;60.050;18.582;2023-10-09T08:53:37;101158.31;;;35.72;12.21
73284;BME280;61519;60.050;18.582;2023-10-09T08:56:16;101187.91;;;33.42;13.41
73284;BME280;61519;60.050;18.582;2023-10-09T08:58:51;101152.81;;;31.69;13.95
73284;BME280;61519;60.050;18.582;2023-10-09T09:01:17;101155.53;;;30.14;14.58
73284;BME280;61519;60.050;18.582;2023-10-09T09:03:47;101175.69;;;29.15;15.23
73284;BME280;61519;60.050;18.582;2023-10-09T09:06:13;101177.56;;;28.34;15.69
73284;BME280;61519;60.050;18.582;2023-10-09T09:08:39;101171.94;;;27.23;16.44
73284;BME280;61519;60.050;18.582;2023-10-09T09:11:12;101162.63;;;26.75;16.80
73284;BME280;61519;60.050;18.582;2023-10-09T09:13:41;101156.41;;;26.09;17.15
73284;BME280;61519;60.050;18.582;2023-10-09T09:16:13;101191.28;;;25.34;17.82
73284;BME280;61519;60.050;18.582;2023-10-09T09:18:56;101180.63;;;24.28;18.64
73284;BME280;61519;60.050;18.582;2023-10-09T09:21:27;101152.00;;;23.04;19.37
73284;BME280;61519;60.050;18.582;2023-10-09T09:23:56;101179.94;;;22.32;19.87
73284;BME280;61519;60.050;18.582;2023-10-09T09:26:38;101148.75;;;21.30;20.55
73284;BME280;61519;60.050;18.582;2023-10-09T09:29:11;101139.97;;;20.60;21.24
73284;BME280;61519;60.050;18.582;2023-10-09T09:31:36;101179.66;;;20.40;21.69
73284;BME280;61519;60.050;18.582;2023-10-09T09:34:07;101165.94;;;20.06;21.79
73284;BME280;61519;60.050;18.582;2023-10-09T09:36:53;101159.91;;;19.81;22.22
73284;BME280;61519;60.050;18.582;2023-10-09T09:39:28;101158.09;;;19.64;22.45
73284;BME280;61519;60.050;18.582;2023-10-09T09:41:58;101159.44;;;19.73;22.75
73284;BME280;61519;60.050;18.582;2023-10-09T09:44:33;101176.84;;;20.35;22.48
73284;BME280;61519;60.050;18.582;2023-10-09T09:47:08;101158.72;;;21.06;22.13
73284;BME280;61519;60.050;18.582;2023-10-09T09:49:41;101180.25;;;22.85;21.11
73284;BME280;61519;60.050;18.582;2023-10-09T09:52:07;101183.81;;;24.57;20.29
73284;BME280;61519;60.050;18.582;2023-10-09T09:54:36;101178.06;;;26.44;19.01
73284;BME280;61519;60.050;18.582;2023-10-09T09:57:03;101165.94;;;28.86;18.13
73284;BME280;61519;60.050;18.582;2023-10-09T09:59:38;101169.91;;;31.74;16.85
73284;BME280;61519;60.050;18.582;2023-10-09T10:02:07;101172.34;;;34.37;15.79
73284;BME280;61519;60.050;18.582;2023-10-09T10:04:38;101162.28;;;34.75;15.52
73284;BME280;61519;60.050;18.582;2023-10-09T10:07:06;101177.44;;;36.67;14.10
73284;BME280;61519;60.050;18.582;2023-10-09T10:09:42;101153.09;;;38.05;13.50
73284;BME280;61519;60.050;18.582;2023-10-09T10:12:11;101174.75;;;39.78;13.00
73284;BME280;61519;60.050;18.582;2023-10-09T10:14:57;101170.09;;;40.66;12.60
73284;BME280;61519;60.050;18.582;2023-10-09T10:20:28;101183.06;;;42.26;11.39
73284;BME280;61519;60.050;18.582;2023-10-09T10:23:18;101189.81;;;43.84;11.07
73284;BME280;61519;60.050;18.582;2023-10-09T10:25:44;101180.09;;;44.92;10.27
73284;BME280;61519;60.050;18.582;2023-10-09T10:28:21;101187.38;;;45.94;9.91
73284;BME280;61519;60.050;18.582;2023-10-09T10:31:05;101198.50;;;46.63;9.72
73284;BME280;61519;60.050;18.582;2023-10-09T10:36:22;101188.75;;;45.44;10.23
73284;BME280;61519;60.050;18.582;2023-10-09T10:39:07;101194.78;;;44.47;9.91
73284;BME280;61519;60.050;18.582;2023-10-09T10:41:36;101172.34;;;42.61;10.44
73284;BME280;61519;60.050;18.582;2023-10-09T10:44:30;101185.09;;;41.95;10.33
73284;BME280;61519;60.050;18.582;2023-10-09T10:46:59;101178.59;;;39.55;11.32
73284;BME280;61519;60.050;18.582;2023-10-09T10:49:26;101170.63;;;37.73;11.81
73284;BME280;61519;60.050;18.582;2023-10-09T10:52:01;101186.09;;;37.14;12.13
73284;BME280;61519;60.050;18.582;2023-10-09T10:54:40;101156.94;;;35.16;12.79
73284;BME280;61519;60.050;18.582;2023-10-09T10:57:19;101151.25;;;33.95;13.08
73284;BME280;61519;60.050;18.582;2023-10-09T10:59:55;101187.81;;;32.25;14.23
73284;BME280;61519;60.050;18.582;2023-10-09T11:02:39;101184.91;;;31.09;14.33
73284;BME280;61519;60.050;18.582;2023-10-09T11:05:07;101181.44;;;30.30;14.58
73284;BME280;61519;60.050;18.582;2023-10-09T11:07:49;101183.63;;;29.54;15.28
73284;BME280;61519;60.050;18.582;2023-10-09T11:10:22;101129.19;;;28.12;15.97
73284;BME280;61519;60.050;18.582;2023-10-09T11:12:53;101173.34;;;27.79;16.54
73284;BME280;61519;60.050;18.582;2023-10-09T11:15:36;101186.59;;;27.22;16.72
73284;BME280;61519;60.050;18.582;2023-10-09T11:18:15;101159.41;;;26.38;17.23
73284;BME280;61519;60.050;18.582;2023-10-09T11:20:51;101179.59;;;25.85;17.62
73284;BME280;61519;60.050;18.582;2023-10-09T11:23:29;101177.22;;;25.21;17.97
73284;BME280;61519;60.050;18.582;2023-10-09T11:26:05;101184.06;;;24.56;18.61
73284;BME280;61519;60.050;18.582;2023-10-09T11:32:03;101161.63;;;23.00;19.90
73284;BME280;61519;60.050;18.582;2023-10-09T11:34:34;101191.84;;;22.52;20.35
73284;BME280;61519;60.050;18.582;2023-10-09T11:39:36;101166.75;;;21.57;20.88
73284;BME280;61519;60.050;18.582;2023-10-09T11:42:07;101187.69;;;21.44;21.29
73284;BME280;61519;60.050;18.582;2023-10-09T11:44:41;101192.06;;;21.10;21.70
73284;BME280;61519;60.050;18.582;2023-10-09T11:47:10;101196.09;;;20.66;22.17
73284;BME280;61519;60.050;18.582;2023-10-09T11:49:58;101192.41;;;20.14;22.55
73284;BME280;61519;60.050;18.582;2023-10-09T11:52:30;101172.34;;;19.76;22.82
73284;BME280;61519;60.050;18.582;2023-10-09T11:55:04;101183.53;;;19.73;23.10
73284;BME280;61519;60.050;18.582;2023-10-09T11:57:39;101174.63;;;19.61;23.03
73284;BME280;61519;60.050;18.582;2023-10-09T12:00:05;101191.66;;;19.48;23.53
73284;BME280;61519;60.050;18.582;2023-10-09T12:02:54;101191.34;;;19.20;23.74
73284;BME280;61519;60.050;18.582;2023-10-09T12:05:19;101184.63;;;18.93;24.09
73284;BME280;61519;60.050;18.582;2023-10-09T12:07:45;101193.25;;;18.95;24.46
73284;BME280;61519;60.050;18.582;2023-10-09T12:10:11;101192.63;;;18.93;24.69
73284;BME280;61519;60.050;18.582;2023-10-09T12:12:40;101167.81;;;18.68;24.88
73284;BME280;61519;60.050;18.582;2023-10-09T12:15:11;101169.41;;;18.51;25.02
73284;BME280;61519;60.050;18.582;2023-10-09T12:17:42;101169.22;;;18.46;25.17
73284;BME280;61519;60.050;18.582;2023-10-09T12:20:09;101171.72;;;18.47;25.35
73284;BME280;61519;60.050;18.582;2023-10-09T12:22:39;101193.50;;;18.69;25.30
73284;BME280;61519;60.050;18.582;2023-10-09T12:25:06;101187.13;;;18.70;25.44
73284;BME280;61519;60.050;18.582;2023-10-09T12:27:34;101158.53;;;18.46;25.57
73284;BME280;61519;60.050;18.582;2023-10-09T12:29:59;101175.03;;;18.42;25.63
73284;BME280;61519;60.050;18.582;2023-10-09T12:32:28;101188.09;;;18.51;26.18
73284;BME280;61519;60.050;18.582;2023-10-09T12:34:53;101179.34;;;18.44;26.14
73284;BME280;61519;60.050;18.582;2023-10-09T12:37:19;101193.50;;;18.44;26.29
73284;BME280;61519;60.050;18.582;2023-10-09T12:39:45;101184.13;;;18.28;26.39
73284;BME280;61519;60.050;18.582;2023-10-09T12:42:11;101181.81;;;18.07;26.69
73284;BME280;61519;60.050;18.582;2023-10-09T12:44:37;101177.44;;;17.88;27.10
73284;BME280;61519;60.050;18.582;2023-10-09T12:47:09;101197.22;;;17.74;27.12
73284;BME280;61519;60.050;18.582;2023-10-09T12:49:37;101172.69;;;17.39;27.46
73284;BME280;61519;60.050;18.582;2023-10-09T12:52:07;101201.09;;;17.21;27.71
73284;BME280;61519;60.050;18.582;2023-10-09T12:54:41;101196.63;;;16.89;27.99
73284;BME280;61519;60.050;18.582;2023-10-09T12:57:07;101171.69;;;16.50;28.27
73284;BME280;61519;60.050;18.582;2023-10-09T12:59:39;101160.97;;;16.18;28.72
73284;BME280;61519;60.050;18.582;2023-10-09T13:02:05;101201.94;;;16.17;28.90
73284;BME280;61519;60.050;18.582;2023-10-09T13:04:31;101187.09;;;15.75;29.09
73284;BME280;61519;60.050;18.582;2023-10-09T13:06:57;101154.19;;;15.29;29.74
73284;BME280;61519;60.050;18.582;2023-10-09T13:09:27;101187.69;;;15.30;30.04
73284;BME280;61519;60.050;18.582;2023-10-09T13:12:22;101187.94;;;15.01;30.26
73284;BME280;61519;60.050;18.582;2023-10-09T13:14:48;101190.13;;;14.90;30.54
73284;BME280;61519;60.050;18.582;2023-10-09T13:17:14;101168.53;;;14.66;31.09
73284;BME280;61519;60.050;18.582;2023-10-09T13:19:40;101170.88;;;14.54;31.22
73284;BME280;61519;60.050;18.582;2023-10-09T13:22:05;101165.88;;;14.45;31.47
73284;BME280;61519;60.050;18.582;2023-10-09T13:24:38;101195.53;;;14.48;31.55
73284;BME280;61519;60.050;18.582;2023-10-09T13:27:04;101186.19;;;14.31;31.73
73284;BME280;61519;60.050;18.582;2023-10-09T13:29:30;101202.09;;;14.31;31.92
73284;BME280;61519;60.050;18.582;2023-10-09T13:31:59;101185.19;;;14.11;32.19
73284;BME280;61519;60.050;18.582;2023-10-09T13:34:27;101198.38;;;14.04;32.56